Aviation Digital Data Service (ADDS)

Output produced by TAFs form (0156 UTC 25 February 2018)
found at http://aviationweather.gov/adds/tafs/
 
KPIT 250151Z 10008KT 10SM FEW012 OVC021 08/07 A2998 RMK AO2 RAE18 SLP164 P0001 T00780067
KPIT 242332Z 2500/2606 09007KT P6SM VCSH OVC015 
     FM250300 12008KT 6SM SHRA OVC015 
     FM250600 13008KT 3SM +SHRA OVC015 WS020/18040KT 
     FM251000 16009KT 6SM -SHRA OVC015 WS020/20045KT 
     FM251500 23011G20KT P6SM VCSH BKN030 
     FM251800 25009KT P6SM SCT250
       
KAGC 250153Z 09007KT 10SM OVC022 08/06 A2999 RMK AO2 SLP165 T00830061
KAGC 242332Z 2500/2524 09007KT P6SM VCSH OVC010 
     FM250300 12008KT 6SM SHRA OVC015 
     FM250600 13008KT 3SM +SHRA OVC015 WS020/18040KT 
     FM251000 16009KT 6SM -SHRA OVC015 WS020/20045KT 
     FM251500 23011G20KT P6SM VCSH BKN030 
     FM251800 25009KT P6SM SCT250
       
KBVI 242047Z 10007KT 10SM -RA OVC007 07/06 A3004
KBVI 242332Z 2500/2524 09007KT P6SM VCSH OVC015 
     FM250300 12008KT 6SM SHRA OVC015 
     FM250600 13008KT 3SM +SHRA OVC015 WS020/18040KT 
     FM251000 16009KT 6SM -SHRA OVC015 WS020/20045KT 
     FM251500 23011G20KT P6SM VCSH BKN030 
     FM251800 25009KT P6SM SCT250 AMD NOT SKED 2502/2512
       
KFKL 250056Z AUTO 12008KT 10SM BKN070 OVC085 06/04 A3004 RMK AO2 SLP182 T00610044
KFKL 242332Z 2500/2524 13007KT P6SM OVC015 
     FM250300 12010KT P6SM -SHRA OVC015 
     FM250600 13010KT 3SM +SHRA OVC008 WS020/16040KT 
     FM251200 16012G20KT 6SM -SHRA OVC008 WS020/20045KT 
     FM251500 26011G19KT P6SM VCSH OVC010 
     FM251800 25010KT P6SM SCT250
       
KYNG 250151Z 11010KT 10SM FEW080 OVC160 08/05 A2996 RMK AO2 SLP152 T00780050
KYNG 250149Z 2502/2524 11007KT P6SM SCT015 OVC080 
     FM250400 10008KT P6SM -SHRA BKN020 OVC040 
     FM250700 12012KT 3SM RA VCTS OVC008CB 
     FM250900 18015G25KT 4SM -SHRA BR BKN010 OVC025 
     FM251400 24018G28KT P6SM VCSH SCT008 OVC025